createdAt,value
2022-09-14T00:01:21.062Z,8.13
2022-09-14T00:03:45.762Z,10.53
2022-09-14T00:06:15.586Z,10.23
2022-09-14T00:08:43.607Z,10.30
2022-09-14T00:11:13.197Z,12.90
2022-09-14T00:13:42.112Z,13.30
2022-09-14T00:16:17.762Z,14.90
2022-09-14T00:18:44.918Z,13.33
2022-09-14T00:21:12.746Z,14.47
2022-09-14T00:23:42.082Z,14.47
2022-09-14T00:26:12.304Z,11.67
2022-09-14T00:28:41.291Z,17.40
2022-09-14T00:31:08.832Z,16.47
2022-09-14T00:33:36.241Z,17.27
2022-09-14T00:36:07.407Z,16.53
2022-09-14T00:38:34.392Z,18.20
2022-09-14T00:41:01.960Z,18.57
2022-09-14T00:43:29.254Z,15.93
2022-09-14T00:45:56.398Z,18.77
2022-09-14T00:48:25.513Z,20.77
2022-09-14T00:50:53.756Z,16.20
2022-09-14T00:53:20.609Z,19.07
2022-09-14T00:55:47.737Z,21.77
2022-09-14T00:58:14.387Z,23.87
2022-09-14T01:00:41.115Z,24.80
2022-09-14T01:03:07.800Z,21.50
2022-09-14T01:05:50.802Z,22.50
2022-09-14T01:08:48.142Z,24.52
2022-09-14T01:11:39.657Z,22.97
2022-09-14T01:14:27.476Z,24.70
2022-09-14T01:16:59.031Z,25.93
2022-09-14T01:19:34.815Z,26.73
2022-09-14T01:22:09.414Z,26.20
2022-09-14T01:24:48.548Z,24.20
2022-09-14T01:27:33.613Z,27.53
2022-09-14T01:30:06.946Z,27.30
2022-09-14T01:32:46.651Z,27.57
2022-09-14T01:35:24.813Z,24.97
2022-09-14T01:38:01.338Z,22.87
2022-09-14T01:40:34.064Z,26.00
2022-09-14T01:43:14.466Z,22.67
2022-09-14T01:45:46.841Z,24.60
2022-09-14T01:48:15.853Z,23.50
2022-09-14T01:50:48.504Z,26.90
2022-09-14T01:53:26.203Z,29.77
2022-09-14T01:56:03.292Z,29.70
2022-09-14T01:58:48.472Z,29.87
2022-09-14T02:01:21.915Z,26.73
2022-09-14T02:03:57.887Z,31.03
2022-09-14T02:06:36.269Z,22.23
2022-09-14T02:09:05.312Z,23.83
2022-09-14T02:11:32.401Z,26.87
2022-09-14T02:13:59.418Z,30.00
2022-09-14T02:16:26.504Z,27.93
2022-09-14T02:18:53.807Z,29.83
2022-09-14T02:21:26.431Z,30.13
2022-09-14T02:23:53.685Z,32.83
2022-09-14T02:26:22.936Z,30.77
2022-09-14T02:28:50.260Z,28.37
2022-09-14T02:31:30.292Z,24.47
2022-09-14T02:33:59.771Z,28.77
2022-09-14T02:36:26.341Z,21.77
2022-09-14T02:39:01.442Z,28.87
2022-09-14T02:42:09.380Z,28.80
2022-09-14T02:44:52.323Z,25.33
2022-09-14T02:47:25.379Z,25.77
2022-09-14T02:50:04.502Z,25.67
2022-09-14T02:52:44.703Z,25.70
2022-09-14T02:55:17.220Z,26.33
2022-09-14T02:58:10.076Z,22.73
2022-09-14T03:00:45.552Z,25.80
2022-09-14T03:03:14.004Z,22.83
2022-09-14T03:05:41.333Z,22.70
2022-09-14T03:08:10.192Z,19.73
2022-09-14T03:10:37.411Z,19.57
2022-09-14T03:13:04.551Z,21.47
2022-09-14T03:15:31.379Z,21.13
2022-09-14T03:17:58.541Z,21.80
2022-09-14T03:20:28.783Z,18.07
2022-09-14T03:22:55.726Z,21.23
2022-09-14T03:25:23.969Z,21.00
2022-09-14T03:28:00.650Z,21.97
2022-09-14T03:30:27.925Z,18.07
2022-09-14T03:32:54.627Z,20.37
2022-09-14T03:35:21.545Z,21.47
2022-09-14T03:37:48.202Z,21.00
2022-09-14T03:40:21.342Z,21.93
2022-09-14T03:42:50.410Z,19.73
2022-09-14T03:45:17.922Z,22.33
2022-09-14T03:47:45.198Z,14.77
2022-09-14T03:50:13.022Z,20.40
2022-09-14T03:52:39.875Z,20.93
2022-09-14T03:55:09.136Z,21.97
2022-09-14T03:57:36.284Z,18.30
2022-09-14T04:00:04.551Z,17.13
2022-09-14T04:02:31.303Z,22.00
2022-09-14T04:04:58.381Z,17.73
2022-09-14T04:07:25.119Z,22.10
2022-09-14T04:09:52.161Z,23.70
2022-09-14T04:12:18.791Z,24.33
2022-09-14T04:14:45.457Z,25.83
2022-09-14T04:17:12.485Z,24.73
2022-09-14T04:19:41.474Z,22.63
2022-09-14T04:22:08.322Z,24.87
2022-09-14T04:24:35.468Z,20.90
2022-09-14T04:27:02.502Z,22.07
2022-09-14T04:29:30.550Z,23.33
2022-09-14T04:31:57.970Z,23.27
2022-09-14T04:34:24.857Z,26.60
2022-09-14T04:36:51.491Z,21.37
2022-09-14T04:39:18.265Z,26.53
2022-09-14T04:41:44.899Z,28.47
2022-09-14T04:44:11.758Z,27.63
2022-09-14T04:46:43.609Z,29.30
2022-09-14T04:49:13.418Z,28.73
2022-09-14T04:51:40.075Z,26.73
2022-09-14T04:54:07.486Z,26.37
2022-09-14T04:56:36.871Z,27.90
2022-09-14T04:59:05.649Z,26.93
2022-09-14T05:01:36.219Z,29.57
2022-09-14T05:04:03.723Z,31.53
2022-09-14T05:06:33.357Z,29.80
2022-09-14T05:09:01.663Z,33.57
2022-09-14T05:11:31.071Z,33.90
2022-09-14T05:13:58.694Z,33.47
2022-09-14T05:16:31.252Z,30.80
2022-09-14T05:19:03.797Z,32.17
2022-09-14T05:21:32.559Z,30.83
2022-09-14T05:24:01.884Z,30.63
2022-09-14T05:26:30.153Z,28.70
2022-09-14T05:28:58.663Z,28.00
2022-09-14T05:31:26.828Z,27.73
2022-09-14T05:33:53.788Z,27.73
2022-09-14T05:36:21.198Z,28.97
2022-09-14T05:38:48.243Z,26.90
2022-09-14T05:41:15.859Z,26.67
2022-09-14T05:43:43.031Z,27.13
2022-09-14T05:46:17.601Z,30.20
2022-09-14T05:48:44.780Z,28.07
2022-09-14T05:51:14.199Z,30.97
2022-09-14T05:53:41.353Z,28.90
2022-09-14T05:56:12.065Z,30.10
2022-09-14T05:58:39.721Z,27.73
2022-09-14T06:01:12.529Z,25.43
2022-09-14T06:03:39.829Z,27.90
2022-09-14T06:06:07.789Z,28.57
2022-09-14T06:08:35.053Z,28.83
2022-09-14T06:11:10.010Z,27.47
2022-09-14T06:13:37.618Z,27.73
2022-09-14T06:16:09.527Z,27.57
2022-09-14T06:18:37.348Z,27.30
2022-09-14T06:21:04.678Z,26.87
2022-09-14T06:23:32.341Z,19.60
2022-09-14T06:26:00.480Z,18.13
2022-09-14T06:28:28.310Z,18.43
2022-09-14T06:30:55.444Z,16.33
2022-09-14T06:33:22.709Z,15.23
2022-09-14T06:36:02.421Z,13.47
2022-09-14T06:38:29.905Z,11.60
2022-09-14T06:41:00.743Z,11.27
2022-09-14T06:43:29.136Z,10.43
2022-09-14T06:46:20.131Z,8.77
2022-09-14T06:48:56.611Z,7.37
2022-09-14T06:51:27.545Z,8.00
2022-09-14T06:53:58.091Z,7.23
2022-09-14T06:56:28.236Z,7.77
2022-09-14T06:58:55.451Z,6.10
2022-09-14T07:01:22.433Z,6.43
2022-09-14T07:03:51.434Z,5.87
2022-09-14T07:06:26.610Z,5.93
2022-09-14T07:08:54.440Z,4.90
2022-09-14T07:11:25.726Z,5.87
2022-09-14T07:13:54.656Z,4.77
2022-09-14T07:16:21.876Z,5.00
2022-09-14T07:18:48.780Z,5.70
2022-09-14T07:21:17.961Z,5.40
2022-09-14T07:23:47.284Z,5.93
2022-09-14T07:26:21.516Z,4.83
2022-09-14T07:28:51.177Z,5.40
2022-09-14T07:31:22.577Z,6.67
2022-09-14T07:33:53.175Z,7.77
2022-09-14T07:36:20.339Z,6.83
2022-09-14T07:38:54.557Z,7.50
2022-09-14T07:41:22.439Z,7.13
2022-09-14T07:43:50.422Z,6.50
2022-09-14T07:46:18.185Z,6.20
2022-09-14T07:48:45.429Z,6.60
2022-09-14T07:51:12.760Z,6.80
2022-09-14T07:53:42.426Z,7.40
2022-09-14T07:56:10.468Z,7.07
2022-09-14T07:58:37.133Z,7.40
2022-09-14T08:01:08.994Z,6.60
2022-09-14T08:03:36.448Z,6.50
2022-09-14T08:06:05.853Z,7.00
2022-09-14T08:08:36.016Z,7.93
2022-09-14T08:11:07.711Z,7.67
2022-09-14T08:13:35.698Z,6.93
2022-09-14T08:16:02.755Z,6.47
2022-09-14T08:18:32.242Z,7.70
2022-09-14T08:21:09.850Z,6.00
2022-09-14T08:23:37.575Z,7.43
2022-09-14T08:26:09.705Z,7.57
2022-09-14T08:28:36.988Z,7.43
2022-09-14T08:31:09.033Z,7.90
2022-09-14T08:33:37.248Z,6.77
2022-09-14T08:36:04.864Z,7.17
2022-09-14T08:38:31.933Z,6.33
2022-09-14T08:40:59.962Z,7.00
2022-09-14T08:43:27.846Z,5.93
2022-09-14T08:45:58.190Z,6.30
2022-09-14T08:48:35.715Z,5.80
2022-09-14T08:51:04.408Z,5.73
2022-09-14T08:53:32.975Z,6.17
2022-09-14T08:56:09.374Z,5.63
2022-09-14T08:59:06.743Z,5.87
2022-09-14T09:01:43.459Z,5.33
2022-09-14T09:04:28.729Z,5.67
2022-09-14T09:06:58.776Z,5.63
2022-09-14T09:09:39.632Z,5.17
2022-09-14T09:12:06.519Z,4.80
2022-09-14T09:14:43.977Z,5.37
2022-09-14T09:17:33.464Z,4.07
2022-09-14T09:20:09.192Z,4.90
2022-09-14T09:22:41.937Z,5.10
2022-09-14T09:25:20.483Z,3.90
2022-09-14T09:27:47.611Z,4.57
2022-09-14T09:30:15.531Z,4.17
2022-09-14T09:32:42.872Z,4.60
2022-09-14T09:35:15.796Z,4.37
2022-09-14T09:37:42.849Z,4.27
2022-09-14T09:40:18.560Z,3.93
2022-09-14T09:43:05.111Z,4.40
2022-09-14T09:45:49.721Z,3.20
2022-09-14T09:48:18.158Z,3.10
2022-09-14T09:50:50.151Z,3.70
2022-09-14T09:53:17.813Z,2.70
2022-09-14T09:55:48.843Z,3.17
2022-09-14T09:58:23.005Z,3.67
2022-09-14T10:00:57.019Z,3.03
2022-09-14T10:03:29.138Z,2.90
2022-09-14T10:06:22.255Z,3.00
2022-09-14T10:08:49.801Z,3.27
2022-09-14T10:11:37.800Z,3.60
2022-09-14T10:14:29.137Z,3.90
2022-09-14T10:17:05.436Z,4.03
2022-09-14T10:19:33.509Z,4.07
2022-09-14T10:22:27.906Z,4.07
2022-09-14T10:24:55.231Z,4.13
2022-09-14T10:27:36.998Z,4.60
2022-09-14T10:30:07.207Z,3.90
2022-09-14T10:32:34.994Z,4.13
2022-09-14T10:35:02.187Z,3.80
2022-09-14T10:37:33.406Z,4.10
2022-09-14T10:40:15.589Z,4.30
2022-09-14T10:43:12.234Z,4.20
2022-09-14T10:45:41.711Z,4.70
2022-09-14T10:48:20.442Z,5.10
2022-09-14T10:50:53.814Z,5.57
2022-09-14T10:53:41.237Z,5.37
2022-09-14T10:56:19.721Z,5.27
2022-09-14T10:59:05.597Z,4.67
2022-09-14T11:02:04.452Z,4.30
2022-09-14T11:04:54.749Z,5.27
2022-09-14T11:07:22.474Z,5.00
2022-09-14T11:10:12.654Z,4.97
2022-09-14T11:13:17.473Z,4.17
2022-09-14T11:15:47.424Z,4.20
2022-09-14T11:18:46.062Z,4.23
2022-09-14T11:21:16.087Z,4.63
2022-09-14T11:23:54.835Z,4.70
2022-09-14T11:26:42.302Z,4.30
2022-09-14T11:29:44.240Z,4.17
2022-09-14T11:32:28.510Z,3.80
2022-09-14T11:35:03.368Z,3.80
2022-09-14T11:37:32.992Z,4.53
2022-09-14T11:40:08.079Z,3.93
2022-09-14T11:42:43.652Z,4.20
2022-09-14T11:45:22.286Z,3.73
2022-09-14T11:47:59.284Z,4.50
2022-09-14T11:50:28.658Z,4.27
2022-09-14T11:53:07.546Z,4.10
2022-09-14T11:55:34.704Z,5.23
2022-09-14T11:58:04.904Z,4.23
2022-09-14T12:00:31.716Z,4.77
2022-09-14T12:03:00.187Z,4.07
2022-09-14T12:05:30.265Z,3.93
2022-09-14T12:08:26.126Z,4.83
2022-09-14T12:11:28.573Z,3.80
2022-09-14T12:14:23.829Z,4.40
2022-09-14T12:17:39.326Z,4.37
2022-09-14T12:20:33.799Z,4.70
2022-09-14T12:23:34.448Z,3.63
2022-09-14T12:26:27.998Z,4.47
2022-09-14T12:28:57.786Z,4.70
2022-09-14T12:31:32.931Z,3.50
2022-09-14T12:34:19.842Z,4.20
2022-09-14T12:36:46.449Z,3.60
2022-09-14T12:39:25.813Z,3.80
2022-09-14T12:41:52.841Z,3.70
2022-09-14T12:44:39.494Z,3.60
2022-09-14T12:47:24.481Z,4.00
2022-09-14T12:49:53.519Z,4.00
2022-09-14T12:52:39.171Z,3.83
2022-09-14T12:55:20.571Z,5.00
2022-09-14T12:58:00.395Z,6.07
2022-09-14T13:00:29.715Z,6.70
2022-09-14T13:03:02.000Z,6.43
2022-09-14T13:05:32.176Z,6.27
2022-09-14T13:07:59.500Z,6.00
2022-09-14T13:10:32.070Z,5.20
2022-09-14T13:13:01.899Z,5.20
2022-09-14T13:15:44.872Z,5.93
2022-09-14T13:18:17.231Z,4.87
2022-09-14T13:20:51.795Z,4.00
2022-09-14T13:23:23.772Z,3.50
2022-09-14T13:25:50.800Z,3.90
2022-09-14T13:28:19.773Z,3.70
2022-09-14T13:30:58.311Z,3.90
2022-09-14T13:33:25.557Z,4.00
2022-09-14T13:35:55.245Z,3.67
2022-09-14T13:38:32.178Z,4.23
2022-09-14T13:41:09.180Z,4.70
2022-09-14T13:43:36.414Z,5.40
2022-09-14T13:46:08.026Z,4.63
2022-09-14T13:48:37.406Z,5.17
2022-09-14T13:51:06.018Z,4.67
2022-09-14T13:53:53.493Z,5.13
2022-09-14T13:56:20.636Z,5.00
2022-09-14T13:58:50.307Z,5.53
2022-09-14T14:01:30.260Z,5.13
2022-09-14T14:04:03.268Z,5.53
2022-09-14T14:06:34.794Z,4.70
2022-09-14T14:09:09.755Z,4.10
2022-09-14T14:11:45.561Z,4.40
2022-09-14T14:14:12.640Z,5.10
2022-09-14T14:16:39.837Z,5.57
2022-09-14T14:19:26.328Z,5.87
2022-09-14T14:22:14.676Z,4.80
2022-09-14T14:25:09.122Z,4.70
2022-09-14T14:27:37.663Z,4.63
2022-09-14T14:30:26.860Z,5.00
2022-09-14T14:32:55.987Z,5.13
2022-09-14T14:35:25.837Z,5.10
2022-09-14T14:37:52.560Z,4.77
2022-09-14T14:40:20.119Z,4.37
2022-09-14T14:42:49.314Z,6.30
2022-09-14T14:45:27.354Z,5.40
2022-09-14T14:47:55.608Z,4.00
2022-09-14T14:50:27.669Z,4.37
2022-09-14T14:52:54.922Z,3.90
2022-09-14T14:55:23.754Z,4.43
2022-09-14T14:57:52.448Z,4.60
2022-09-14T15:00:22.548Z,4.60
2022-09-14T15:02:50.332Z,5.40
2022-09-14T15:05:17.569Z,5.10
2022-09-14T15:07:44.924Z,6.63
2022-09-14T15:10:15.747Z,5.80
2022-09-14T15:12:43.117Z,4.63
2022-09-14T15:15:14.673Z,5.27
2022-09-14T15:17:42.459Z,5.30
2022-09-14T15:20:10.307Z,7.57
2022-09-14T15:22:37.349Z,8.03
2022-09-14T15:25:05.448Z,9.10
2022-09-14T15:27:32.997Z,8.50
2022-09-14T15:30:00.175Z,9.30
2022-09-14T15:32:27.399Z,10.43
2022-09-14T15:34:54.190Z,11.30
2022-09-14T15:37:21.361Z,10.83
2022-09-14T15:39:50.559Z,13.57
2022-09-14T15:42:18.453Z,10.93
2022-09-14T15:44:45.651Z,13.00
2022-09-14T15:47:16.618Z,12.77
2022-09-14T15:49:43.811Z,9.43
2022-09-14T15:52:11.350Z,10.03
2022-09-14T15:54:38.939Z,8.17
2022-09-14T15:57:08.229Z,10.37
2022-09-14T15:59:35.147Z,8.37
2022-09-14T16:02:02.363Z,9.10
2022-09-14T16:04:29.533Z,8.37
2022-09-14T16:06:56.592Z,6.77
2022-09-14T16:09:23.350Z,9.80
2022-09-14T16:11:50.426Z,9.53
2022-09-14T16:14:17.194Z,10.10
2022-09-14T16:16:44.371Z,9.43
2022-09-14T16:19:13.790Z,39.47
2022-09-14T16:21:41.960Z,15.57
2022-09-14T16:24:15.736Z,8.97
2022-09-14T16:26:43.193Z,44.57
2022-09-14T16:29:12.209Z,19.13
2022-09-14T16:31:40.522Z,12.13
2022-09-14T16:34:11.810Z,8.57
2022-09-14T16:36:40.049Z,9.33
2022-09-14T16:39:11.187Z,15.03
2022-09-14T16:41:40.362Z,10.20
2022-09-14T16:44:07.488Z,6.23
2022-09-14T16:46:34.780Z,6.70
2022-09-14T16:49:01.568Z,6.13
2022-09-14T16:51:30.480Z,6.30
2022-09-14T16:53:59.671Z,6.33
2022-09-14T16:56:35.336Z,5.40
2022-09-14T16:59:03.698Z,5.43
2022-09-14T17:01:35.730Z,5.37
2022-09-14T17:04:08.276Z,5.40
2022-09-14T17:06:36.559Z,5.00
2022-09-14T17:09:09.701Z,5.07
2022-09-14T17:11:37.543Z,5.57
2022-09-14T17:14:04.814Z,4.80
2022-09-14T17:16:32.022Z,4.97
2022-09-14T17:19:01.232Z,4.63
2022-09-14T17:21:31.993Z,5.70
2022-09-14T17:23:59.408Z,6.07
2022-09-14T17:26:26.505Z,6.03
2022-09-14T17:28:55.697Z,5.60
2022-09-14T17:31:26.309Z,5.77
2022-09-14T17:33:57.813Z,6.40
2022-09-14T17:36:25.314Z,6.27
2022-09-14T17:38:52.529Z,6.17
2022-09-14T17:41:21.812Z,5.93
2022-09-14T17:43:57.112Z,5.90
2022-09-14T17:46:24.500Z,4.57
2022-09-14T17:48:51.946Z,5.63
2022-09-14T17:51:25.552Z,5.83
2022-09-14T17:53:53.751Z,5.63
2022-09-14T17:56:22.219Z,5.70
2022-09-14T17:58:59.361Z,6.90
2022-09-14T18:01:26.180Z,7.77
2022-09-14T18:03:55.761Z,6.80
2022-09-14T18:06:24.066Z,6.30
2022-09-14T18:09:00.169Z,7.23
2022-09-14T18:11:28.171Z,6.63
2022-09-14T18:13:55.859Z,7.10
2022-09-14T18:16:24.084Z,6.33
2022-09-14T18:18:51.505Z,6.47
2022-09-14T18:21:18.778Z,6.57
2022-09-14T18:23:52.295Z,6.73
2022-09-14T18:26:20.056Z,6.70
2022-09-14T18:28:46.905Z,6.47
2022-09-14T18:31:15.933Z,6.70
2022-09-14T18:34:01.565Z,6.73
2022-09-14T18:36:29.972Z,7.03
2022-09-14T18:38:59.984Z,7.07
2022-09-14T18:41:32.380Z,7.90
2022-09-14T18:43:59.662Z,8.17
2022-09-14T18:46:28.566Z,8.00
2022-09-14T18:49:01.024Z,8.00
2022-09-14T18:51:29.589Z,9.27
2022-09-14T18:54:03.660Z,8.60
2022-09-14T18:56:33.155Z,8.03
2022-09-14T18:59:00.720Z,9.20
2022-09-14T19:01:27.696Z,8.57
2022-09-14T19:03:55.996Z,9.60
2022-09-14T19:06:23.046Z,10.47
2022-09-14T19:08:50.300Z,10.10
2022-09-14T19:11:18.775Z,10.07
2022-09-14T19:13:46.302Z,10.30
2022-09-14T19:16:15.972Z,10.00
2022-09-14T19:18:44.002Z,8.97
2022-09-14T19:21:12.610Z,10.23
2022-09-14T19:23:39.955Z,11.03
2022-09-14T19:26:09.024Z,10.37
2022-09-14T19:28:36.558Z,11.07
2022-09-14T19:31:08.534Z,11.53
2022-09-14T19:33:36.196Z,11.47
2022-09-14T19:36:09.413Z,12.53
2022-09-14T19:38:36.894Z,12.43
2022-09-14T19:41:05.135Z,10.83
2022-09-14T19:43:33.212Z,11.23
2022-09-14T19:46:20.231Z,11.07
2022-09-14T19:48:47.683Z,14.17
2022-09-14T19:51:16.029Z,12.97
2022-09-14T19:53:44.072Z,16.23
2022-09-14T19:56:12.614Z,15.93
2022-09-14T19:58:40.475Z,16.47
2022-09-14T20:01:07.683Z,17.57
2022-09-14T20:03:36.773Z,15.93
2022-09-14T20:06:06.677Z,17.07
2022-09-14T20:08:34.860Z,16.63
2022-09-14T20:11:07.078Z,15.97
2022-09-14T20:13:34.596Z,16.67
2022-09-14T20:16:09.050Z,14.57
2022-09-14T20:18:36.136Z,15.70
2022-09-14T20:21:06.701Z,16.20
2022-09-14T20:23:33.775Z,15.97
2022-09-14T20:26:04.766Z,14.63
2022-09-14T20:28:33.749Z,14.70
2022-09-14T20:31:01.843Z,14.00
2022-09-14T20:33:29.404Z,16.50
2022-09-14T20:36:06.753Z,16.43
2022-09-14T20:38:33.764Z,18.13
2022-09-14T20:41:02.674Z,18.13
2022-09-14T20:43:34.014Z,19.13
2022-09-14T20:46:09.230Z,18.57
2022-09-14T20:48:36.307Z,19.83
2022-09-14T20:51:03.411Z,21.00
2022-09-14T20:53:33.947Z,19.93
2022-09-14T20:56:01.976Z,20.70
2022-09-14T20:58:28.822Z,18.67
2022-09-14T21:01:12.179Z,21.10
2022-09-14T21:03:40.947Z,20.20
2022-09-14T21:06:10.700Z,21.07
2022-09-14T21:08:39.564Z,20.23
2022-09-14T21:11:22.673Z,22.60
2022-09-14T21:13:51.262Z,19.53
2022-09-14T21:16:20.110Z,21.20
2022-09-14T21:18:48.013Z,20.63
2022-09-14T21:21:17.123Z,21.60
2022-09-14T21:23:44.250Z,23.17
2022-09-14T21:26:12.328Z,24.23
2022-09-14T21:28:40.048Z,23.10
2022-09-14T21:31:29.844Z,23.37
2022-09-14T21:33:58.962Z,23.67
2022-09-14T21:36:28.366Z,23.80
2022-09-14T21:38:57.268Z,24.83
2022-09-14T21:41:25.648Z,23.97
2022-09-14T21:43:52.883Z,24.00
2022-09-14T21:46:19.981Z,25.13
2022-09-14T21:48:46.908Z,24.67
2022-09-14T21:51:20.995Z,26.30
2022-09-14T21:53:53.304Z,25.53
2022-09-14T21:56:21.610Z,24.30
2022-09-14T21:58:55.579Z,24.10
2022-09-14T22:01:23.781Z,27.17
2022-09-14T22:03:51.865Z,24.67
2022-09-14T22:06:20.329Z,26.40
2022-09-14T22:08:46.966Z,24.60
2022-09-14T22:11:18.258Z,25.90
2022-09-14T22:13:53.921Z,26.00
2022-09-14T22:16:22.438Z,26.10
2022-09-14T22:18:51.445Z,26.40
2022-09-14T22:21:19.586Z,27.03
2022-09-14T22:23:53.561Z,26.40
2022-09-14T22:26:21.147Z,25.97
2022-09-14T22:28:49.098Z,25.87
2022-09-14T22:31:17.657Z,26.83
2022-09-14T22:33:44.923Z,26.80
2022-09-14T22:36:12.123Z,24.90
2022-09-14T22:38:40.943Z,25.47
2022-09-14T22:41:12.726Z,26.70
2022-09-14T22:43:40.469Z,25.47
2022-09-14T22:46:08.333Z,25.87
2022-09-14T22:48:35.905Z,25.83
2022-09-14T22:51:03.398Z,24.33
2022-09-14T22:53:30.852Z,25.47
2022-09-14T22:55:57.679Z,25.27
2022-09-14T22:58:26.593Z,24.53
2022-09-14T23:00:54.101Z,24.97
2022-09-14T23:03:21.333Z,25.63
2022-09-14T23:05:49.576Z,25.53
2022-09-14T23:08:16.743Z,25.03
2022-09-14T23:10:43.774Z,22.13
2022-09-14T23:13:10.414Z,24.67
2022-09-14T23:15:38.545Z,23.50
2022-09-14T23:18:05.966Z,22.47
2022-09-14T23:20:36.295Z,23.07
2022-09-14T23:23:03.212Z,23.17
2022-09-14T23:25:29.928Z,23.47
2022-09-14T23:27:56.907Z,23.43
2022-09-14T23:30:24.026Z,24.27
2022-09-14T23:32:50.841Z,24.17
2022-09-14T23:35:17.817Z,23.47
2022-09-14T23:37:44.518Z,24.47
2022-09-14T23:40:12.717Z,24.93
2022-09-14T23:42:39.828Z,22.83
2022-09-14T23:45:07.053Z,25.37
2022-09-14T23:47:33.678Z,24.90
2022-09-14T23:50:00.725Z,23.17
2022-09-14T23:52:27.408Z,21.10
2022-09-14T23:54:54.092Z,19.27
2022-09-14T23:57:20.764Z,20.30
2022-09-14T23:59:47.387Z,19.43
